Time;durP1;ratioP1;P1;durP2;ratioP2;P2;SDS_P1;SDS_P2;PMS_P1;PMS_P2;Temp;Humidity;BMP_temperature;BMP_pressure;BME280_temperature;BME280_humidity;BME280_pressure;Samples;Min_cycle;Max_cycle;Signal;HPM_P1;HPM_P2
2023/01/20 00:01:35;;;;;;;44.70;22.40;;;;;;;-0.44;100.00;97713.38;105669;1292;138477;-70
2023/01/20 00:04:01;;;;;;;45.40;21.50;;;;;;;-0.47;99.82;97717.23;105937;1281;25254;-70
2023/01/20 00:06:29;;;;;;;46.20;21.40;;;;;;;-0.49;99.96;97724.20;105781;1292;138078;-70
2023/01/20 00:08:58;;;;;;;48.50;22.30;;;;;;;-0.50;99.95;97727.22;105804;1276;138197;-71
2023/01/20 00:11:25;;;;;;;;;;;;;;;-0.52;99.77;97724.95;105771;1292;138468;-71
2023/01/20 00:13:54;;;;;;;47.70;22.90;;;;;;;-0.54;99.88;97729.50;105732;1292;125779;-71
2023/01/20 00:16:22;;;;;;;46.20;21.70;;;;;;;-0.57;99.88;97730.04;105872;1292;26722;-70
2023/01/20 00:18:49;;;;;;;44.80;22.50;;;;;;;-0.59;99.85;97727.43;106171;1288;138088;-70
2023/01/20 00:21:17;;;;;;;45.50;21.40;;;;;;;-0.61;100.00;97723.35;106459;1280;139230;-70
2023/01/20 00:23:45;;;;;;;42.90;21.50;;;;;;;-0.63;100.00;97723.36;106183;1286;138551;-70
2023/01/20 00:26:15;;;;;;;42.00;20.50;;;;;;;-0.64;99.76;97727.85;106192;1287;138596;-70
2023/01/20 00:28:43;;;;;;;40.90;20.00;;;;;;;-0.66;99.92;97731.19;106222;1287;22595;-70
2023/01/20 00:31:19;;;;;;;42.00;20.60;;;;;;;-0.70;99.58;97733.55;106130;1268;138349;-70
2023/01/20 00:33:47;;;;;;;50.70;23.10;;;;;;;-0.73;99.53;97744.49;106513;1287;24255;-70
2023/01/20 00:36:16;;;;;;;46.30;22.40;;;;;;;-0.77;99.47;97748.28;106191;1287;137999;-70
2023/01/20 00:38:43;;;;;;;45.90;21.50;;;;;;;-0.79;99.78;97748.76;106057;1288;138764;-71
2023/01/20 00:41:10;;;;;;;43.40;21.50;;;;;;;-0.82;99.59;97752.10;106090;1287;138347;-71
2023/01/20 00:43:37;;;;;;;47.80;21.90;;;;;;;-0.83;99.48;97760.89;106062;1287;138447;-71
2023/01/20 00:46:05;;;;;;;47.40;22.60;;;;;;;-0.85;99.72;97752.71;106233;1287;24224;-70
2023/01/20 00:48:33;;;;;;;45.20;21.70;;;;;;;-0.86;99.66;97745.39;106097;1282;138683;-71
2023/01/20 00:51:00;;;;;;;44.90;22.30;;;;;;;-0.88;99.48;97743.15;106094;1268;138489;-71
2023/01/20 00:53:27;;;;;;;44.80;23.00;;;;;;;-0.90;99.50;97736.42;106067;1288;138491;-71
2023/01/20 00:55:54;;;;;;;47.90;23.00;;;;;;;-0.95;99.09;97727.63;106102;1289;138195;-70
2023/01/20 00:58:21;;;;;;;44.80;22.30;;;;;;;-1.02;98.79;97730.26;106234;1288;22542;-70
2023/01/20 01:00:49;;;;;;;49.40;23.10;;;;;;;-1.08;98.79;97735.54;106277;1276;137949;-70
2023/01/20 01:03:17;;;;;;;48.80;25.40;;;;;;;-1.12;98.94;97753.54;106209;1286;139928;-70
2023/01/20 01:05:44;;;;;;;49.30;24.50;;;;;;;-1.14;99.46;97767.86;106168;1287;139700;-70
2023/01/20 01:08:12;;;;;;;47.70;24.40;;;;;;;-1.17;99.65;97769.92;106162;1285;138513;-70
2023/01/20 01:10:39;;;;;;;44.70;22.50;;;;;;;-1.17;99.84;97779.11;106256;1287;25359;-70
2023/01/20 01:13:08;;;;;;;52.30;24.00;;;;;;;-1.18;99.78;97789.19;106019;1287;138177;-70
2023/01/20 01:15:35;;;;;;;52.80;24.70;;;;;;;-1.18;99.83;97786.18;106204;1287;23685;-70
2023/01/20 01:18:02;;;;;;;47.60;21.80;;;;;;;-1.19;99.92;97779.31;106086;1287;139769;-70
2023/01/20 01:20:30;;;;;;;51.40;24.10;;;;;;;-1.21;99.64;97769.91;106139;1269;138581;-70
2023/01/20 01:22:57;;;;;;;46.60;23.10;;;;;;;-1.24;99.78;97765.16;106378;1285;22563;-70
2023/01/20 01:25:23;;;;;;;44.00;22.10;;;;;;;-1.29;99.37;97769.27;106037;1283;140037;-70
2023/01/20 01:27:50;;;;;;;45.20;22.00;;;;;;;-1.36;99.43;97761.95;106228;1283;24069;-70
2023/01/20 01:30:17;;;;;;;47.00;21.90;;;;;;;-1.41;99.25;97764.48;106179;1287;138037;-70
2023/01/20 01:32:44;;;;;;;43.90;19.50;;;;;;;-1.46;99.54;97753.54;106076;1270;139370;-71
2023/01/20 01:35:11;;;;;;;48.00;22.50;;;;;;;-1.51;99.64;97761.31;106167;1289;24296;-70
2023/01/20 01:37:38;;;;;;;55.70;25.30;;;;;;;-1.56;99.75;97767.54;106054;1286;138367;-70
2023/01/20 01:40:05;;;;;;;51.60;24.40;;;;;;;-1.59;99.70;97765.23;106159;1287;22568;-71
2023/01/20 01:42:32;;;;;;;45.50;21.90;;;;;;;-1.62;99.94;97768.64;106139;1267;138069;-70
2023/01/20 01:45:11;;;;;;;51.60;23.00;;;;;;;-1.63;99.94;97764.52;106174;1287;138915;-70
2023/01/20 01:47:51;;;;;;;45.10;22.70;;;;;;;-1.64;100.00;97761.43;106147;1287;138357;-70
2023/01/20 01:50:22;;;;;;;48.70;22.60;;;;;;;-1.65;100.00;97754.40;106303;1287;138944;-70
2023/01/20 01:52:52;;;;;;;51.00;24.30;;;;;;;-1.66;100.00;97763.75;106705;1268;22589;-70
2023/01/20 01:55:23;;;;;;;46.90;22.00;;;;;;;-1.66;100.00;97773.96;107166;1287;138457;-70
2023/01/20 01:57:51;;;;;;;52.90;21.90;;;;;;;-1.67;100.00;97779.74;106331;1287;22549;-70
2023/01/20 02:00:19;;;;;;;54.70;25.00;;;;;;;-1.67;100.00;97768.53;107244;1287;138182;-70
2023/01/20 02:02:46;;;;;;;53.70;25.20;;;;;;;-1.67;100.00;97773.84;106256;1268;138892;-70
2023/01/20 02:05:15;;;;;;;45.80;21.10;;;;;;;-1.65;100.00;97787.83;106285;1287;138522;-71
2023/01/20 02:07:45;;;;;;;52.40;23.70;;;;;;;-1.63;100.00;97777.91;106824;1287;138525;-70
2023/01/20 02:10:12;;;;;;;46.50;21.70;;;;;;;-1.61;100.00;97781.02;106332;1287;24254;-70
2023/01/20 02:12:46;;;;;;;51.60;23.20;;;;;;;-1.59;100.00;97788.27;106205;1277;139264;-70
2023/01/20 02:15:13;;;;;;;51.60;24.30;;;;;;;-1.57;100.00;97800.95;106711;1281;138400;-70
2023/01/20 02:18:15;;;;;;;51.50;23.50;;;;;;;-1.52;100.00;97811.05;106217;1273;138661;-70
2023/01/20 02:21:10;;;;;;;43.90;21.90;;;;;;;-1.46;100.00;97809.65;106408;1292;140201;-70
2023/01/20 02:23:46;;;;;;;48.80;21.60;;;;;;;-1.42;100.00;97808.23;106010;1290;138704;-70
2023/01/20 02:26:35;;;;;;;43.90;20.70;;;;;;;-1.39;100.00;97805.39;106110;1290;138938;-70
2023/01/20 02:29:24;;;;;;;46.40;21.10;;;;;;;-1.36;100.00;97800.55;106199;1290;24212;-70
2023/01/20 02:32:06;;;;;;;47.80;23.90;;;;;;;-1.34;100.00;97797.98;106177;1267;140494;-70
2023/01/20 02:34:52;;;;;;;42.10;17.90;;;;;;;-1.32;100.00;97796.97;106176;1290;22588;-70
2023/01/20 02:37:24;;;;;;;43.10;16.90;;;;;;;-1.32;100.00;97798.66;105891;1290;139501;-70
2023/01/20 02:40:09;;;;;;;37.80;17.00;;;;;;;-1.32;100.00;97794.85;108184;1286;24262;-70
2023/01/20 02:42:43;;;;;;;32.60;16.00;;;;;;;-1.32;100.00;97799.27;106575;1270;138840;-70
2023/01/20 02:45:35;;;;;;;34.50;16.40;;;;;;;-1.32;100.00;97800.18;106142;1289;138380;-70
2023/01/20 02:48:29;;;;;;;40.30;17.30;;;;;;;-1.32;99.92;97810.33;106152;1289;140739;-70
2023/01/20 02:51:09;;;;;;;35.00;16.40;;;;;;;-1.32;99.93;97808.11;105641;1296;138375;-70
2023/01/20 02:53:45;;;;;;;38.70;16.00;;;;;;;-1.32;99.79;97807.30;105418;1287;138736;-70
2023/01/20 02:56:14;;;;;;;31.70;15.80;;;;;;;-1.33;99.78;97812.16;105393;1297;138319;-70
2023/01/20 02:58:47;;;;;;;35.00;15.40;;;;;;;-1.32;99.76;97821.88;106563;1293;22589;-70
2023/01/20 03:01:43;;;;;;;29.80;13.70;;;;;;;-1.34;99.40;97825.39;105726;1293;138547;-70
2023/01/20 03:04:14;;;;;;;35.70;15.60;;;;;;;-1.35;99.14;97827.92;105793;1284;23498;-70
2023/01/20 03:06:45;;;;;;;32.30;14.80;;;;;;;-1.37;98.87;97820.13;105910;1294;138229;-70
2023/01/20 03:09:17;;;;;;;38.30;16.40;;;;;;;-1.39;98.58;97820.71;105680;1294;140098;-70
2023/01/20 03:11:51;;;;;;;33.20;14.90;;;;;;;-1.40;98.95;97819.73;105655;1294;140961;-70
2023/01/20 03:14:18;;;;;;;39.40;17.80;;;;;;;-1.39;99.18;97818.00;105639;1273;138466;-70
2023/01/20 03:16:47;;;;;;;30.40;15.50;;;;;;;-1.39;98.83;97820.21;105868;1281;22614;-70
2023/01/20 03:19:15;;;;;;;34.00;15.40;;;;;;;-1.40;98.57;97823.50;105626;1293;140041;-70
2023/01/20 03:21:43;;;;;;;34.80;15.50;;;;;;;-1.41;98.87;97824.44;105811;1293;22661;-70
2023/01/20 03:24:10;;;;;;;37.40;16.90;;;;;;;-1.40;98.76;97826.49;105708;1277;138533;-70
2023/01/20 03:26:37;;;;;;;35.00;15.90;;;;;;;-1.39;98.77;97824.62;105760;1293;138663;-70
2023/01/20 03:29:07;;;;;;;31.60;15.30;;;;;;;-1.39;98.83;97825.94;106192;1287;24622;-70
2023/01/20 03:31:49;;;;;;;37.20;15.90;;;;;;;-1.39;98.58;97820.42;106254;1287;139239;-70
2023/01/20 03:34:20;;;;;;;32.60;15.10;;;;;;;-1.38;98.83;97825.78;106904;1287;22589;-70
2023/01/20 03:36:48;;;;;;;33.20;14.80;;;;;;;-1.36;99.04;97835.95;106390;1287;138657;-70
2023/01/20 03:39:15;;;;;;;35.90;16.50;;;;;;;-1.33;99.08;97833.17;107190;1287;138663;-70
2023/01/20 03:41:55;;;;;;;35.50;16.50;;;;;;;-1.32;98.78;97840.20;106209;1287;138462;-70
2023/01/20 03:44:45;;;;;;;39.70;15.70;;;;;;;-1.29;98.96;97842.73;106183;1264;138230;-70
2023/01/20 03:47:43;;;;;;;35.60;16.00;;;;;;;-1.28;98.85;97844.67;106335;1287;23234;-70
2023/01/20 03:50:23;;;;;;;35.60;16.40;;;;;;;-1.28;98.65;97845.44;106203;1286;138411;-70
2023/01/20 03:53:00;;;;;;;36.00;15.40;;;;;;;-1.28;98.55;97842.23;106415;1287;22543;-70
2023/01/20 03:55:42;;;;;;;38.10;17.30;;;;;;;-1.28;98.31;97838.86;106112;1270;138177;-70
2023/01/20 03:58:13;;;;;;;42.10;17.20;;;;;;;-1.31;98.07;97833.35;106357;1287;25300;-70
2023/01/20 04:00:44;;;;;;;39.00;17.30;;;;;;;-1.32;98.00;97834.00;106231;1287;137985;-70
2023/01/20 04:03:21;;;;;;;44.10;18.70;;;;;;;-1.34;98.01;97836.61;106686;1273;138426;-70
2023/01/20 04:05:49;;;;;;;38.40;16.50;;;;;;;-1.36;97.90;97833.41;106238;1268;139189;-70
2023/01/20 04:08:19;;;;;;;42.30;18.10;;;;;;;-1.41;97.57;97837.46;106332;1286;139199;-70
2023/01/20 04:10:49;;;;;;;41.60;17.80;;;;;;;-1.44;97.83;97839.80;106631;1283;24340;-70
2023/01/20 04:22:31;;;;;;;42.10;17.70;;;;;;;-1.44;98.05;97854.59;103649;1292;545720;-70
2023/01/20 04:25:15;;;;;;;41.90;17.70;;;;;;;-1.45;97.92;97854.93;106072;1290;137484;-71
2023/01/20 04:27:42;;;;;;;38.80;17.60;;;;;;;-1.47;97.80;97859.56;105793;1295;22572;-70
2023/01/20 04:30:10;;;;;;;34.80;17.00;;;;;;;-1.47;98.03;97865.11;105705;1295;137904;-70
2023/01/20 04:32:36;;;;;;;40.20;18.60;;;;;;;-1.46;98.05;97866.92;105937;1275;137451;-70
2023/01/20 04:35:04;;;;;;;32.40;15.50;;;;;;;-1.44;98.23;97873.77;105628;1292;398613;-70
2023/01/20 04:37:30;;;;;;;33.60;16.00;;;;;;;-1.42;98.41;97878.56;105821;1276;138294;-70
2023/01/20 04:39:57;;;;;;;37.50;17.50;;;;;;;-1.40;98.23;97876.23;106014;1292;22543;-71
2023/01/20 04:42:24;;;;;;;35.10;14.90;;;;;;;-1.39;98.10;97878.49;105818;1275;137564;-70
2023/01/20 04:44:51;;;;;;;38.80;16.60;;;;;;;-1.36;98.41;97881.77;105936;1291;139474;-70
2023/01/20 04:47:18;;;;;;;36.90;17.70;;;;;;;-1.34;97.89;97890.81;105991;1291;24312;-70
2023/01/20 04:49:45;;;;;;;36.60;17.00;;;;;;;-1.30;98.67;97896.64;105893;1291;137821;-69
2023/01/20 04:52:11;;;;;;;41.50;16.60;;;;;;;-1.27;98.80;97901.38;106070;1269;22536;-70
2023/01/20 04:54:38;;;;;;;34.90;16.50;;;;;;;-1.25;99.17;97899.02;105987;1280;138661;-70
2023/01/20 04:57:05;;;;;;;40.60;17.60;;;;;;;-1.19;98.81;97905.56;106025;1291;137872;-70
2023/01/20 04:59:32;;;;;;;36.00;17.60;;;;;;;-1.17;98.75;97908.67;106124;1291;24274;-70
2023/01/20 05:01:59;;;;;;;38.90;17.90;;;;;;;-1.14;98.67;97910.19;105880;1269;137869;-70
2023/01/20 05:04:26;;;;;;;36.90;16.70;;;;;;;-1.11;98.49;97908.80;106029;1292;24431;-70
2023/01/20 05:06:53;;;;;;;36.00;17.30;;;;;;;-1.09;98.69;97913.10;105921;1292;138358;-70
2023/01/20 05:09:20;;;;;;;42.50;18.10;;;;;;;-1.08;98.50;97913.70;105928;1292;139272;-70
2023/01/20 05:11:46;;;;;;;41.40;17.20;;;;;;;-1.06;98.10;97921.09;105888;1269;138042;-70
2023/01/20 05:14:13;;;;;;;35.10;17.90;;;;;;;-1.05;98.50;97921.95;105778;1276;138305;-70
2023/01/20 05:16:40;;;;;;;37.00;16.60;;;;;;;-1.03;98.24;97926.70;106002;1292;22563;-69
2023/01/20 05:19:09;;;;;;;35.60;16.60;;;;;;;-1.02;98.49;97922.98;105884;1291;138444;-70
2023/01/20 05:21:36;;;;;;;38.30;15.30;;;;;;;-1.02;97.89;97920.64;106079;1291;24380;-70
2023/01/20 05:24:03;;;;;;;32.40;14.80;;;;;;;-1.05;97.59;97918.35;105910;1274;140000;-70
2023/01/20 05:26:30;;;;;;;35.00;16.00;;;;;;;-1.06;97.55;97922.39;105966;1291;139524;-70
2023/01/20 05:28:56;;;;;;;38.10;16.90;;;;;;;-1.06;97.81;97927.54;106042;1291;22818;-70
2023/01/20 05:31:24;;;;;;;31.50;14.80;;;;;;;-1.05;98.10;97925.58;105817;1291;138527;-70
2023/01/20 05:33:50;;;;;;;28.20;13.20;;;;;;;-1.03;97.95;97926.86;106069;1269;23020;-70
2023/01/20 05:36:17;;;;;;;28.10;13.10;;;;;;;-1.02;97.97;97926.23;106011;1291;138977;-70
2023/01/20 05:38:44;;;;;;;31.40;13.00;;;;;;;-1.01;98.10;97930.15;106293;1285;138576;-70
2023/01/20 05:41:11;;;;;;;27.90;12.20;;;;;;;-0.99;97.93;97931.58;106178;1284;24079;-70
2023/01/20 05:43:38;;;;;;;27.60;12.00;;;;;;;-1.00;97.88;97932.44;106360;1272;138239;-70
2023/01/20 05:46:05;;;;;;;18.60;9.40;;;;;;;-0.98;97.78;97935.70;106078;1291;22540;-70
2023/01/20 05:48:32;;;;;;;21.50;9.80;;;;;;;-0.96;98.04;97935.27;105933;1290;137639;-70
2023/01/20 05:50:59;;;;;;;21.50;9.40;;;;;;;-0.95;97.64;97941.71;106026;1290;137696;-70
2023/01/20 05:53:26;;;;;;;20.90;10.10;;;;;;;-0.97;97.59;97941.20;105945;1272;22592;-70
2023/01/20 05:56:04;;;;;;;21.50;10.20;;;;;;;-0.96;97.48;97942.53;105765;1291;137712;-70
2023/01/20 05:58:32;;;;;;;17.80;8.60;;;;;;;-0.94;97.82;97946.62;105927;1291;22543;-70
2023/01/20 06:01:10;;;;;;;17.90;8.20;;;;;;;-0.92;98.12;97946.60;105876;1291;137552;-70
2023/01/20 06:03:38;;;;;;;21.20;8.80;;;;;;;-0.91;98.13;97947.48;106064;1268;22578;-70
2023/01/20 06:06:08;;;;;;;16.70;8.90;;;;;;;-0.89;97.96;97949.80;105897;1291;138055;-70
2023/01/20 06:08:35;;;;;;;22.00;10.70;;;;;;;-0.88;98.21;97953.94;106236;1291;137657;-70
2023/01/20 06:11:02;;;;;;;26.40;11.50;;;;;;;-0.87;97.75;97955.34;106024;1291;22605;-69
2023/01/20 06:13:28;;;;;;;21.80;10.80;;;;;;;-0.85;97.72;97960.34;106133;1278;137912;-70
2023/01/20 06:15:56;;;;;;;22.10;10.90;;;;;;;-0.84;97.77;97961.51;106413;1287;22558;-70
2023/01/20 06:18:23;;;;;;;23.20;11.20;;;;;;;-0.83;97.95;97960.96;106287;1279;137652;-70
2023/01/20 06:20:50;;;;;;;35.70;14.20;;;;;;;-0.81;97.92;97963.23;106298;1279;138336;-70
2023/01/20 06:23:17;;;;;;;36.90;16.80;;;;;;;-0.80;97.86;97965.98;107091;1266;22711;-70
2023/01/20 06:25:44;;;;;;;36.70;16.00;;;;;;;-0.81;97.84;97967.81;106165;1287;138481;-70
2023/01/20 06:28:11;;;;;;;35.90;15.00;;;;;;;-0.81;97.46;97971.92;106357;1287;25278;-70
2023/01/20 06:30:39;;;;;;;28.90;12.70;;;;;;;-0.81;97.46;97976.94;106257;1275;137664;-70
2023/01/20 06:33:09;;;;;;;28.30;13.60;;;;;;;-0.83;97.21;97974.77;106293;1287;138996;-70
2023/01/20 06:35:37;;;;;;;32.90;14.00;;;;;;;-0.82;97.58;97980.66;106317;1287;22537;-70
2023/01/20 06:38:04;;;;;;;28.20;12.80;;;;;;;-0.81;97.52;97983.73;106278;1287;137617;-70
2023/01/20 06:40:31;;;;;;;33.90;13.90;;;;;;;-0.80;97.63;97983.61;106415;1287;23625;-70
2023/01/20 06:42:58;;;;;;;32.10;13.60;;;;;;;-0.78;97.95;97989.73;106288;1287;140682;-70
2023/01/20 06:45:25;;;;;;;34.60;15.20;;;;;;;-0.74;98.08;97990.77;106265;1269;138445;-70
2023/01/20 06:47:52;;;;;;;36.80;14.90;;;;;;;-0.70;98.21;97992.96;106298;1286;138132;-70
2023/01/20 06:50:18;;;;;;;30.90;14.60;;;;;;;-0.68;98.08;97988.42;106306;1286;137858;-70
2023/01/20 06:52:45;;;;;;;30.20;15.10;;;;;;;-0.65;97.93;97990.60;106404;1287;22956;-70
2023/01/20 06:55:12;;;;;;;30.70;15.20;;;;;;;-0.63;97.78;97991.02;106091;1272;138437;-70
2023/01/20 06:57:39;;;;;;;31.10;14.00;;;;;;;-0.61;97.93;97993.55;106375;1287;22547;-70
2023/01/20 07:00:06;;;;;;;31.20;14.40;;;;;;;-0.57;97.62;97993.30;106279;1287;138674;-70
2023/01/20 07:02:33;;;;;;;33.80;15.50;;;;;;;-0.55;97.12;97992.25;106308;1279;137868;-70
2023/01/20 07:05:01;;;;;;;29.90;14.80;;;;;;;-0.53;97.23;97993.60;106376;1269;22566;-70
2023/01/20 07:07:29;;;;;;;33.60;14.20;;;;;;;-0.51;97.40;97994.58;106413;1287;138683;-70
2023/01/20 07:10:04;;;;;;;33.20;14.10;;;;;;;-0.47;97.45;97995.50;106484;1279;22553;-71
2023/01/20 07:12:33;;;;;;;32.20;15.50;;;;;;;-0.43;97.40;98002.30;106608;1287;138494;-70
2023/01/20 07:15:00;;;;;;;32.50;14.70;;;;;;;-0.39;97.34;97999.91;107068;1277;138202;-71
2023/01/20 07:17:28;;;;;;;34.10;15.30;;;;;;;-0.35;97.44;97995.52;106436;1285;22543;-70
2023/01/20 07:19:58;;;;;;;31.30;14.20;;;;;;;-0.31;97.06;97990.56;106193;1287;137883;-71
2023/01/20 07:22:33;;;;;;;34.40;15.10;;;;;;;-0.30;96.48;97985.59;106679;1287;22549;-70
2023/01/20 07:25:07;;;;;;;31.90;15.50;;;;;;;-0.31;96.00;97989.25;106298;1278;139637;-71
2023/01/20 07:27:35;;;;;;;27.50;13.80;;;;;;;-0.32;96.01;97993.85;106282;1287;22664;-71
2023/01/20 07:30:01;;;;;;;33.00;15.00;;;;;;;-0.32;95.65;97998.73;106181;1286;138386;-71
2023/01/20 07:32:29;;;;;;;36.10;16.40;;;;;;;-0.36;95.20;98003.86;106256;1286;138799;-71
2023/01/20 07:34:57;;;;;;;38.30;16.70;;;;;;;-0.42;94.99;98011.80;106372;1263;22667;-71
2023/01/20 07:37:24;;;;;;;38.60;17.30;;;;;;;-0.45;95.44;98014.66;106494;1279;138385;-72
2023/01/20 07:39:51;;;;;;;39.20;17.10;;;;;;;-0.44;95.73;98019.73;106739;1279;25369;-72
2023/01/20 07:42:18;;;;;;;36.90;16.10;;;;;;;-0.41;95.98;98020.30;106946;1273;138905;-71
2023/01/20 07:44:45;;;;;;;40.10;17.60;;;;;;;-0.36;96.16;98020.77;106616;1279;138441;-72
2023/01/20 07:47:11;;;;;;;36.80;16.50;;;;;;;-0.31;96.12;98014.63;106971;1261;22537;-71
2023/01/20 07:49:38;;;;;;;37.00;16.80;;;;;;;-0.29;95.68;98013.26;106616;1265;138953;-72
2023/01/20 07:52:05;;;;;;;35.80;16.20;;;;;;;-0.27;95.62;98010.53;106764;1279;22546;-71
2023/01/20 07:54:32;;;;;;;37.50;15.90;;;;;;;-0.22;95.76;98010.29;106627;1273;138730;-72
2023/01/20 07:56:59;;;;;;;36.70;15.80;;;;;;;-0.18;95.78;98010.21;106867;1260;137978;-72
2023/01/20 07:59:27;;;;;;;36.50;16.10;;;;;;;-0.20;95.06;98010.15;106718;1259;24206;-72
2023/01/20 08:01:55;;;;;;;34.70;16.10;;;;;;;-0.21;94.70;98015.00;106582;1280;138002;-72
2023/01/20 08:04:21;;;;;;;40.40;17.20;;;;;;;-0.20;95.46;98015.02;106659;1271;22744;-72
2023/01/20 08:06:48;;;;;;;39.30;18.80;;;;;;;-0.14;95.59;98017.46;107837;1258;138359;-72
2023/01/20 08:09:16;;;;;;;36.00;16.20;;;;;;;-0.09;95.42;98011.45;106652;1279;138457;-72
2023/01/20 08:11:43;;;;;;;37.30;16.90;;;;;;;-0.09;94.72;98020.16;106749;1279;23444;-72
2023/01/20 08:14:10;;;;;;;37.30;16.90;;;;;;;-0.11;94.43;98021.13;106626;1279;142460;-72
2023/01/20 08:16:37;;;;;;;43.40;18.30;;;;;;;-0.14;94.54;98026.49;106865;1276;22538;-72
2023/01/20 08:19:04;;;;;;;34.80;16.90;;;;;;;-0.14;94.69;98034.11;106752;1279;138130;-72
2023/01/20 08:21:31;;;;;;;39.90;16.90;;;;;;;-0.14;94.69;98038.63;106621;1276;137807;-72
2023/01/20 08:24:01;;;;;;;35.40;15.60;;;;;;;-0.16;94.33;98040.64;106663;1279;138137;-72
2023/01/20 08:26:29;;;;;;;39.60;14.90;;;;;;;-0.19;94.14;98045.70;106908;1256;138094;-72
2023/01/20 08:29:02;;;;;;;41.90;17.40;;;;;;;-0.24;94.37;98043.45;106828;1279;25666;-72
2023/01/20 08:31:29;;;;;;;41.50;17.20;;;;;;;-0.23;94.33;98047.04;107168;1276;138563;-72
2023/01/20 08:33:55;;;;;;;37.40;16.30;;;;;;;-0.23;94.52;98046.56;106766;1279;24276;-72
2023/01/20 08:36:27;;;;;;;39.50;18.10;;;;;;;-0.17;94.96;98043.50;106694;1260;138736;-72
2023/01/20 08:38:55;;;;;;;37.30;16.50;;;;;;;-0.14;94.58;98042.75;106624;1280;139609;-72
2023/01/20 08:41:32;;;;;;;41.00;18.10;;;;;;;-0.11;94.69;98039.98;106737;1280;23117;-72
2023/01/20 08:44:03;;;;;;;39.80;17.40;;;;;;;-0.04;95.05;98046.16;106442;1275;139050;-72
2023/01/20 08:46:30;;;;;;;41.80;17.30;;;;;;;0.04;95.22;98047.38;106697;1256;22544;-72
2023/01/20 08:48:57;;;;;;;40.60;17.10;;;;;;;0.10;95.12;98051.01;106723;1279;139184;-72
2023/01/20 08:51:30;;;;;;;39.50;17.40;;;;;;;0.18;95.22;98051.95;107143;1269;138139;-71
2023/01/20 08:53:57;;;;;;;36.90;17.30;;;;;;;0.29;95.15;98057.67;106666;1279;139344;-72
2023/01/20 08:56:25;;;;;;;35.20;16.10;;;;;;;0.35;94.72;98060.91;106818;1258;139397;-72
2023/01/20 08:58:53;;;;;;;33.50;16.40;;;;;;;0.44;94.63;98062.08;106755;1279;22541;-71
2023/01/20 09:01:22;;;;;;;39.00;17.40;;;;;;;0.51;94.59;98068.50;106588;1279;138658;-72
2023/01/20 09:03:50;;;;;;;37.60;18.50;;;;;;;0.59;94.37;98071.09;106841;1279;25366;-71
2023/01/20 09:06:18;;;;;;;38.50;17.90;;;;;;;0.67;94.50;98068.69;106651;1279;138117;-71
2023/01/20 09:08:46;;;;;;;36.70;16.50;;;;;;;0.73;94.22;98064.14;106917;1262;138010;-71
2023/01/20 09:11:18;;;;;;;36.70;16.30;;;;;;;0.79;93.94;98064.11;106676;1275;24346;-72
2023/01/20 09:13:45;;;;;;;40.30;17.30;;;;;;;0.81;93.28;98064.05;106512;1279;138071;-72
2023/01/20 09:16:15;;;;;;;38.30;17.60;;;;;;;0.83;93.23;98065.84;106791;1275;22546;-72
2023/01/20 09:18:41;;;;;;;;;;;;;;;0.86;92.76;98065.37;106669;1260;138334;-71
2023/01/20 09:21:09;;;;;;;39.00;18.30;;;;;;;0.86;92.42;98070.23;107098;1276;124146;-71
2023/01/20 09:23:38;;;;;;;37.70;17.90;;;;;;;0.86;92.31;98070.61;107142;1279;25227;-72
2023/01/20 09:26:06;;;;;;;42.20;17.70;;;;;;;0.87;92.50;98070.12;106454;1281;138552;-71
2023/01/20 09:28:34;;;;;;;37.90;16.50;;;;;;;0.92;92.74;98072.83;106707;1263;22539;-72
2023/01/20 09:31:05;;;;;;;41.60;17.90;;;;;;;0.95;92.18;98073.16;106933;1279;138454;-72
2023/01/20 09:33:35;;;;;;;43.10;18.50;;;;;;;0.99;92.36;98073.48;107135;1276;138306;-71
2023/01/20 09:36:04;;;;;;;45.80;19.90;;;;;;;1.05;92.51;98069.88;106728;1272;138195;-72
2023/01/20 09:44:35;;;;;;;52.20;19.30;;;;;;;1.17;91.14;98064.36;106540;1278;140059;-71
2023/01/20 09:47:20;;;;;;;47.00;20.00;;;;;;;1.17;90.82;98062.12;107289;1275;25400;-72
2023/01/20 09:53:22;;;;;;;48.50;20.70;;;;;;;1.24;91.09;98056.39;107184;1270;24258;-71
2023/01/20 09:55:55;;;;;;;44.00;19.10;;;;;;;1.29;91.00;98057.84;106524;1260;138122;-72
2023/01/20 09:58:58;;;;;;;47.10;20.80;;;;;;;1.34;91.25;98054.89;106894;1263;22545;-71
2023/01/20 10:01:45;;;;;;;42.10;19.00;;;;;;;1.38;90.43;98057.45;107035;1273;139545;-71
2023/01/20 10:04:25;;;;;;;48.90;20.80;;;;;;;1.33;90.10;98056.01;106599;1281;23941;-71
2023/01/20 10:07:41;;;;;;;43.60;18.80;;;;;;;1.30;89.90;98055.70;106748;1278;137889;-71
2023/01/20 10:10:29;;;;;;;48.20;19.80;;;;;;;1.20;89.70;98052.90;106246;1265;22564;-71
2023/01/20 10:13:05;;;;;;;47.40;20.00;;;;;;;1.12;89.88;98052.96;106118;1284;138324;-71
2023/01/20 10:15:36;;;;;;;49.10;19.90;;;;;;;1.11;90.37;98052.13;106115;1266;138708;-71
2023/01/20 10:18:08;;;;;;;51.50;19.10;;;;;;;1.11;90.60;98051.88;107350;1284;138681;-73
2023/01/20 10:20:45;;;;;;;47.40;19.80;;;;;;;1.13;90.58;98049.84;106102;1268;138689;-71
2023/01/20 10:23:15;;;;;;;45.30;19.00;;;;;;;1.16;90.76;98055.23;106807;1273;25467;-71
2023/01/20 10:25:54;;;;;;;51.10;19.70;;;;;;;1.16;90.56;98053.38;106033;1287;139409;-71
2023/01/20 10:28:27;;;;;;;47.70;20.10;;;;;;;1.18;90.45;98055.98;106323;1287;22987;-71
2023/01/20 10:31:00;;;;;;;45.00;20.60;;;;;;;1.20;90.91;98058.23;106208;1285;138236;-71
2023/01/20 10:33:32;;;;;;;45.40;19.20;;;;;;;1.24;90.65;98061.11;106225;1287;139032;-71
2023/01/20 10:35:59;;;;;;;49.50;20.80;;;;;;;1.21;89.85;98059.75;107058;1285;138517;-71
2023/01/20 10:38:44;;;;;;;48.80;19.80;;;;;;;1.15;90.06;98060.50;106490;1286;138135;-71
2023/01/20 10:41:20;;;;;;;49.00;21.20;;;;;;;1.11;90.00;98060.13;106302;1271;22599;-71
2023/01/20 10:43:47;;;;;;;43.50;20.20;;;;;;;1.10;90.25;98062.93;105973;1287;138243;-71
2023/01/20 10:46:14;;;;;;;49.60;19.70;;;;;;;1.08;90.28;98058.84;107390;1280;25440;-71
2023/01/20 10:49:03;;;;;;;50.40;20.10;;;;;;;1.08;90.49;98055.45;106476;1280;137867;-71
2023/01/20 10:51:38;;;;;;;52.10;21.40;;;;;;;1.09;90.49;98057.31;106710;1263;138744;-71
2023/01/20 10:54:27;;;;;;;44.30;20.80;;;;;;;1.12;90.82;98058.33;106525;1280;138290;-71
2023/01/20 10:56:57;;;;;;;46.20;20.50;;;;;;;1.16;90.95;98055.89;106448;1282;138148;-71
2023/01/20 10:59:31;;;;;;;50.80;20.60;;;;;;;1.19;90.60;98058.63;106735;1261;22575;-72
2023/01/20 11:02:17;;;;;;;44.60;19.70;;;;;;;1.14;90.17;98057.20;107197;1281;138639;-71
2023/01/20 11:04:51;;;;;;;49.00;21.20;;;;;;;1.13;90.45;98057.68;106770;1263;24282;-71
2023/01/20 11:07:18;;;;;;;48.60;20.80;;;;;;;1.10;90.14;98053.08;107604;1281;138497;-71
2023/01/20 11:09:47;;;;;;;45.30;19.50;;;;;;;1.08;90.24;98053.02;106833;1273;22548;-71
2023/01/20 11:12:17;;;;;;;54.20;20.40;;;;;;;1.03;90.27;98053.84;107830;1279;139268;-71
2023/01/20 11:14:45;;;;;;;47.50;19.90;;;;;;;1.02;90.59;98046.95;107635;1279;138241;-71
2023/01/20 11:17:19;;;;;;;54.40;20.70;;;;;;;1.04;90.76;98042.43;107606;1279;24631;-71
2023/01/20 11:19:49;;;;;;;47.40;19.60;;;;;;;1.07;90.91;98035.98;107197;1279;139995;-72
2023/01/20 11:22:35;;;;;;;47.00;18.90;;;;;;;1.09;90.73;98031.50;106984;1273;25320;-71
2023/01/20 11:25:03;;;;;;;49.20;19.80;;;;;;;1.12;90.85;98025.81;106674;1277;138807;-71
2023/01/20 11:27:36;;;;;;;43.40;18.90;;;;;;;1.10;90.58;98025.88;107845;1272;138596;-71
2023/01/20 11:30:06;;;;;;;48.50;20.80;;;;;;;1.09;90.59;98030.88;106970;1281;138179;-72
2023/01/20 11:32:35;;;;;;;49.20;20.70;;;;;;;1.10;90.79;98033.02;106555;1265;138862;-71
2023/01/20 11:35:24;;;;;;;50.80;20.30;;;;;;;1.12;90.96;98028.46;106881;1280;23913;-71
2023/01/20 11:37:51;;;;;;;45.80;19.20;;;;;;;1.11;90.46;98022.68;106428;1281;138011;-71
2023/01/20 11:40:24;;;;;;;48.00;18.80;;;;;;;1.06;90.21;98017.11;106589;1282;22544;-72
2023/01/20 11:42:52;;;;;;;46.60;19.10;;;;;;;1.03;90.51;98008.65;106714;1276;137856;-71